Time;durP1;ratioP1;P1;durP2;ratioP2;P2;SDS_P1;SDS_P2;PMS_P1;PMS_P2;Temp;Humidity;BMP_temperature;BMP_pressure;BME280_temperature;BME280_humidity;BME280_pressure;Samples;Min_cycle;Max_cycle;Signal;HPM_P1;HPM_P2
2024/03/13 00:02:05;;;;;;;;;;;;;;;-144.99;100.00;52517.41;5003948;28;20050;-68
2024/03/13 00:04:41;;;;;;;;;;;;;;;-144.99;100.00;52509.25;5011192;28;20039;-70
2024/03/13 00:07:10;;;;;;;;;;;;;;;-144.99;100.00;52543.91;5004234;28;19967;-66
2024/03/13 00:09:43;;;;;;;;;;;;;;;-144.99;100.00;52537.78;5011005;28;19957;-67
2024/03/13 00:12:11;;;;;;;;;;;;;;;-144.99;100.00;52505.16;5009547;28;19944;-67
2024/03/13 00:14:38;;;;;;;;;;;;;;;-144.99;100.00;52554.09;5004062;28;19941;-68
2024/03/13 00:17:05;;;;;;;;;;;;;;;-144.99;100.00;52505.16;5003283;28;19972;-68
2024/03/13 00:19:31;;;;;;;;;;;;;;;-144.99;100.00;52492.94;5003742;28;19943;-69
2024/03/13 00:21:58;;;;;;;;;;;;;;;-144.99;100.00;52505.16;5011685;28;20051;-69
2024/03/13 00:24:26;;;;;;;;;;;;;;;-144.99;100.00;52529.63;5004434;28;20051;-69
2024/03/13 00:26:56;;;;;;;;;;;;;;;-144.99;100.00;52484.78;5009878;28;20024;-68
2024/03/13 00:29:25;;;;;;;;;;;;;;;-144.99;100.00;52554.09;5011145;28;19937;-69
2024/03/13 00:31:51;;;;;;;;;;;;;;;-144.99;100.00;52519.44;5011420;28;21532;-66
2024/03/13 00:34:18;;;;;;;;;;;;;;;-144.99;100.00;52509.25;5004726;28;19959;-68
2024/03/13 00:36:45;;;;;;;;;;;;;;;-144.99;100.00;52525.56;5009974;28;20447;-67
2024/03/13 00:39:12;;;;;;;;;;;;;;;-144.99;100.00;52509.25;5006746;28;20403;-67
2024/03/13 00:41:39;;;;;;;;;;;;;;;-144.99;100.00;52547.97;5010606;28;20063;-68
2024/03/13 00:44:06;;;;;;;;;;;;;;;-144.99;100.00;52556.13;5005929;28;19936;-68
2024/03/13 00:46:34;;;;;;;;;;;;;;;-144.99;100.00;52552.03;5010296;28;19939;-68
2024/03/13 00:49:02;;;;;;;;;;;;;;;-144.99;100.00;52513.31;5009509;28;19976;-69
2024/03/13 00:51:30;;;;;;;;;;;;;;;-144.99;100.00;52484.78;4999747;28;20163;-68
2024/03/13 00:53:57;;;;;;;;;;;;;;;-144.99;100.00;52541.84;5009440;28;19941;-68
2024/03/13 00:56:29;;;;;;;;;;;;;;;-144.99;100.00;52517.41;5005355;28;19991;-68
2024/03/13 00:58:55;;;;;;;;;;;;;;;-144.99;100.00;52529.63;5009360;28;19941;-70
2024/03/13 01:01:22;;;;;;;;;;;;;;;-144.99;100.00;52497.00;5009180;28;20228;-69
2024/03/13 01:03:51;;;;;;;;;;;;;;;-144.99;100.00;52550.00;5006956;28;19945;-69
2024/03/13 01:06:18;;;;;;;;;;;;;;;-144.99;100.00;52554.09;5005535;28;20367;-69
2024/03/13 01:08:45;;;;;;;;;;;;;;;-144.99;100.00;52497.00;5009462;28;19944;-69
2024/03/13 01:11:11;;;;;;;;;;;;;;;-144.99;100.00;52537.78;5007074;28;19960;-68
2024/03/13 01:13:38;;;;;;;;;;;;;;;-144.99;100.00;52537.78;5009717;28;19987;-68
2024/03/13 01:16:07;;;;;;;;;;;;;;;-144.99;100.00;52541.84;5001816;28;20053;-68
2024/03/13 01:18:34;;;;;;;;;;;;;;;-144.99;100.00;52513.31;5006639;28;20003;-68
2024/03/13 01:21:02;;;;;;;;;;;;;;;-144.99;100.00;52513.31;5005908;28;19952;-68
2024/03/13 01:23:28;;;;;;;;;;;;;;;-144.99;100.00;52501.09;5004693;28;19945;-68
2024/03/13 01:25:57;;;;;;;;;;;;;;;-144.99;100.00;52515.34;5008436;28;20256;-68
2024/03/13 01:28:23;;;;;;;;;;;;;;;-144.99;100.00;52539.81;5009248;28;20383;-68
2024/03/13 01:30:50;;;;;;;;;;;;;;;-144.99;100.00;52525.56;5008873;28;19968;-68
2024/03/13 01:33:16;;;;;;;;;;;;;;;-144.99;100.00;52505.16;5008245;28;19990;-68
2024/03/13 01:35:43;;;;;;;;;;;;;;;-144.99;100.00;52511.28;5009538;28;20393;-67
2024/03/13 01:38:10;;;;;;;;;;;;;;;-144.99;100.00;52566.31;5009451;28;20395;-67
2024/03/13 01:55:06;;;;;;;;;;;;;;;-144.99;100.00;52521.47;5007161;28;20065;-66
2024/03/13 01:57:34;;;;;;;;;;;;;;;-144.99;100.00;52517.41;5008829;28;19952;-66
2024/03/13 02:02:48;;;;;;;;;;;;;;;-144.99;100.00;52517.41;5005481;28;19957;-66
2024/03/13 02:05:17;;;;;;;;;;;;;;;-144.99;100.00;52545.94;5003866;28;20403;-67
2024/03/13 02:07:44;;;;;;;;;;;;;;;-144.99;100.00;52509.25;5007365;28;19950;-67
2024/03/13 02:10:11;;;;;;;;;;;;;;;-144.99;100.00;52501.09;5001252;28;19960;-67
2024/03/13 02:12:38;;;;;;;;;;;;;;;-144.99;100.00;52521.47;5008914;28;19950;-70
2024/03/13 02:15:05;;;;;;;;;;;;;;;-144.99;100.00;52541.84;5007282;28;20361;-66
2024/03/13 02:17:36;;;;;;;;;;;;;;;-144.99;100.00;52533.69;5001194;28;20042;-70
2024/03/13 02:20:04;;;;;;;;;;;;;;;-144.99;100.00;52566.31;5003850;28;20418;-64
2024/03/13 02:22:30;;;;;;;;;;;;;;;-144.99;100.00;52505.16;5007167;28;19946;-64
2024/03/13 02:24:57;;;;;;;;;;;;;;;-144.99;100.00;52513.31;5002988;28;20488;-64
2024/03/13 02:27:23;;;;;;;;;;;;;;;-144.99;100.00;52541.84;5006827;28;20030;-65
2024/03/13 02:29:51;;;;;;;;;;;;;;;-144.99;100.00;52497.00;5004304;28;20027;-66
2024/03/13 02:32:18;;;;;;;;;;;;;;;-144.99;100.00;52529.63;5001351;28;20480;-65
2024/03/13 02:34:46;;;;;;;;;;;;;;;-144.99;100.00;52515.34;5007464;28;20445;-64
2024/03/13 02:37:12;;;;;;;;;;;;;;;-144.99;100.00;52545.94;5000608;28;20020;-65
2024/03/13 02:39:39;;;;;;;;;;;;;;;-144.99;100.00;52521.47;5004639;28;20507;-66
2024/03/13 02:42:07;;;;;;;;;;;;;;;-144.99;100.00;52539.81;5004865;28;20031;-68
2024/03/13 02:44:33;;;;;;;;;;;;;;;-144.99;100.00;52513.31;5002309;28;19981;-69
2024/03/13 02:47:00;;;;;;;;;;;;;;;-144.99;100.00;52541.84;5005908;28;19999;-68
2024/03/13 02:49:26;;;;;;;;;;;;;;;-144.99;100.00;52527.59;4998565;28;20299;-69
2024/03/13 02:51:53;;;;;;;;;;;;;;;-144.99;100.00;52562.25;4999147;28;19929;-70
2024/03/13 02:54:19;;;;;;;;;;;;;;;-144.99;100.00;52537.78;5001360;28;19980;-70
2024/03/13 02:56:46;;;;;;;;;;;;;;;-144.99;100.00;52545.94;5005537;28;19961;-70
2024/03/13 02:59:12;;;;;;;;;;;;;;;-144.99;100.00;52517.41;5004764;28;19984;-70
2024/03/13 03:01:39;;;;;;;;;;;;;;;-144.99;100.00;52525.56;5006407;28;20004;-70
2024/03/13 03:04:05;;;;;;;;;;;;;;;-144.99;100.00;52501.09;5006595;28;20026;-69
2024/03/13 03:06:32;;;;;;;;;;;;;;;-144.99;100.00;52550.00;5002083;28;20042;-70
2024/03/13 03:08:58;;;;;;;;;;;;;;;-144.99;100.00;52507.19;4999708;28;19951;-67
2024/03/13 03:11:26;;;;;;;;;;;;;;;-144.99;100.00;52462.34;5006536;28;20051;-67
2024/03/13 03:13:52;;;;;;;;;;;;;;;-144.99;100.00;52529.63;5003576;28;20035;-68
2024/03/13 03:16:19;;;;;;;;;;;;;;;-144.99;100.00;52550.00;4997646;28;19969;-61
2024/03/13 03:18:46;;;;;;;;;;;;;;;-144.99;100.00;52541.84;5007767;28;20047;-61
2024/03/13 03:21:13;;;;;;;;;;;;;;;-144.99;100.00;52537.78;5005486;28;19995;-61
2024/03/13 03:23:40;;;;;;;;;;;;;;;-144.99;100.00;52550.00;5007216;28;19956;-60
2024/03/13 03:26:07;;;;;;;;;;;;;;;-144.99;100.00;52529.63;5007409;28;19945;-61
2024/03/13 03:28:34;;;;;;;;;;;;;;;-144.99;100.00;52533.69;5010576;28;19942;-61
2024/03/13 03:31:04;;;;;;;;;;;;;;;-144.99;100.00;52562.25;5009226;28;20029;-61
2024/03/13 03:33:31;;;;;;;;;;;;;;;-144.99;100.00;52505.16;5010994;28;19936;-61
2024/03/13 03:35:58;;;;;;;;;;;;;;;-144.99;100.00;52492.94;5004017;28;20314;-61
2024/03/13 03:38:27;;;;;;;;;;;;;;;-144.99;100.00;52517.41;5010830;28;20383;-63
2024/03/13 03:40:54;;;;;;;;;;;;;;;-144.99;100.00;52570.38;5009016;28;19963;-62
2024/03/13 03:43:20;;;;;;;;;;;;;;;-144.99;100.00;52456.25;5010244;28;20048;-62
2024/03/13 03:45:47;;;;;;;;;;;;;;;-144.99;100.00;52545.94;5003398;28;19940;-66
2024/03/13 03:48:14;;;;;;;;;;;;;;;-144.99;100.00;52545.94;5010652;28;19998;-66
2024/03/13 03:50:40;;;;;;;;;;;;;;;-144.99;100.00;52513.31;5002749;28;20442;-66
2024/03/13 03:53:07;;;;;;;;;;;;;;;-144.99;100.00;52523.50;5003431;28;20341;-65
2024/03/13 03:55:33;;;;;;;;;;;;;;;-144.99;100.00;52554.09;5010142;28;20111;-65
2024/03/13 03:58:00;;;;;;;;;;;;;;;-144.99;100.00;52511.28;5004304;28;19968;-66
2024/03/13 04:00:26;;;;;;;;;;;;;;;-144.99;100.00;52550.00;5010727;28;19955;-61
2024/03/13 04:02:53;;;;;;;;;;;;;;;-144.99;100.00;52558.16;5007821;28;20018;-63
2024/03/13 04:05:19;;;;;;;;;;;;;;;-144.99;100.00;52543.91;5009162;28;19953;-63
2024/03/13 04:07:48;;;;;;;;;;;;;;;-144.99;100.00;52533.69;5010660;28;20386;-64
2024/03/13 04:10:15;;;;;;;;;;;;;;;-144.99;100.00;52566.31;5006047;28;20090;-65
2024/03/13 04:12:41;;;;;;;;;;;;;;;-144.99;100.00;52533.69;5009922;28;20025;-65
2024/03/13 04:15:08;;;;;;;;;;;;;;;-144.99;100.00;52541.84;5006677;28;19983;-62
2024/03/13 04:17:35;;;;;;;;;;;;;;;-144.99;100.00;52550.00;5009857;28;20021;-63
2024/03/13 04:20:02;;;;;;;;;;;;;;;-144.99;100.00;52533.69;5007939;28;20471;-64
2024/03/13 04:22:31;;;;;;;;;;;;;;;-144.99;100.00;52488.84;5009983;28;20052;-64
2024/03/13 04:24:58;;;;;;;;;;;;;;;-144.99;100.00;52492.94;5000910;28;19945;-64
2024/03/13 04:27:24;;;;;;;;;;;;;;;-144.99;100.00;52529.63;5003904;28;19957;-63
2024/03/13 04:29:51;;;;;;;;;;;;;;;-144.99;100.00;52574.47;5006742;28;19987;-64
2024/03/13 04:32:20;;;;;;;;;;;;;;;-144.99;100.00;52545.94;5009089;28;19968;-64
2024/03/13 04:34:47;;;;;;;;;;;;;;;-144.99;100.00;52525.56;5008038;28;19934;-63
2024/03/13 04:37:15;;;;;;;;;;;;;;;-144.99;100.00;52550.00;5007489;28;20419;-64
2024/03/13 04:39:41;;;;;;;;;;;;;;;-144.99;100.00;52582.63;5007993;28;19932;-66
2024/03/13 04:42:08;;;;;;;;;;;;;;;-144.99;100.00;52550.00;4995658;28;19961;-67
2024/03/13 04:44:34;;;;;;;;;;;;;;;-144.99;100.00;52525.56;5004415;28;19926;-68
2024/03/13 04:47:01;;;;;;;;;;;;;;;-144.99;100.00;52521.47;5005704;28;19969;-68
2024/03/13 04:49:28;;;;;;;;;;;;;;;-144.99;100.00;52533.69;5005907;28;20339;-68
2024/03/13 04:51:56;;;;;;;;;;;;;;;-144.99;100.00;52525.56;5003839;28;20000;-68
2024/03/13 04:54:22;;;;;;;;;;;;;;;-144.99;100.00;52525.56;5008182;28;20435;-68
2024/03/13 04:56:49;;;;;;;;;;;;;;;-144.99;100.00;52505.16;5003809;28;19984;-67
2024/03/13 04:59:15;;;;;;;;;;;;;;;-144.99;100.00;52523.50;5006009;28;19968;-68
2024/03/13 05:01:42;;;;;;;;;;;;;;;-144.99;100.00;52497.00;5003427;28;19929;-68
2024/03/13 05:04:08;;;;;;;;;;;;;;;-144.99;100.00;52533.69;5009098;28;19968;-68
2024/03/13 05:06:35;;;;;;;;;;;;;;;-144.99;100.00;52497.00;5008530;28;19988;-70
2024/03/13 05:09:01;;;;;;;;;;;;;;;-144.99;100.00;52562.25;5006042;28;20004;-68
2024/03/13 05:11:28;;;;;;;;;;;;;;;-144.99;100.00;52537.78;5008984;28;19980;-67
2024/03/13 05:13:55;;;;;;;;;;;;;;;-144.99;100.00;52529.63;5005864;28;19929;-68
2024/03/13 05:16:23;;;;;;;;;;;;;;;-144.99;100.00;52603.00;5008818;28;19929;-68
2024/03/13 05:18:49;;;;;;;;;;;;;;;-144.99;100.00;52562.25;5005839;28;20016;-67
2024/03/13 05:21:18;;;;;;;;;;;;;;;-144.99;100.00;52543.91;5008825;28;20391;-71
2024/03/13 05:23:45;;;;;;;;;;;;;;;-144.99;100.00;52550.00;5004685;28;20376;-72
2024/03/13 05:26:12;;;;;;;;;;;;;;;-144.99;100.00;52541.84;5008866;28;19925;-73
2024/03/13 05:28:38;;;;;;;;;;;;;;;-144.99;100.00;52513.31;5005233;28;19940;-72
2024/03/13 05:31:07;;;;;;;;;;;;;;;-144.99;100.00;52541.84;5003910;28;20011;-73
2024/03/13 05:33:36;;;;;;;;;;;;;;;-144.99;100.00;52501.09;5007869;28;19940;-72
2024/03/13 05:36:06;;;;;;;;;;;;;;;-144.99;100.00;52539.81;5006397;28;19994;-70
2024/03/13 05:38:33;;;;;;;;;;;;;;;-144.99;100.00;52552.03;5008416;28;19929;-69
2024/03/13 05:41:00;;;;;;;;;;;;;;;-144.99;100.00;52505.16;5002418;28;19986;-69
2024/03/13 05:43:27;;;;;;;;;;;;;;;-144.99;100.00;52533.69;5008936;28;20007;-69
2024/03/13 05:45:53;;;;;;;;;;;;;;;-144.99;100.00;52521.47;5007093;28;20018;-69
2024/03/13 05:48:20;;;;;;;;;;;;;;;-144.99;100.00;52562.25;5004621;28;20032;-70
2024/03/13 05:50:46;;;;;;;;;;;;;;;-144.99;100.00;52570.38;4999647;28;20072;-69
2024/03/13 05:53:13;;;;;;;;;;;;;;;-144.99;100.00;52560.19;5000584;28;20038;-69
2024/03/13 05:55:40;;;;;;;;;;;;;;;-144.99;100.00;52550.00;5000660;28;20029;-69
2024/03/13 05:58:08;;;;;;;;;;;;;;;-144.99;100.00;52533.69;5004972;28;20123;-70
2024/03/13 06:00:35;;;;;;;;;;;;;;;-144.99;100.00;52533.69;5000718;28;19964;-70
2024/03/13 06:03:02;;;;;;;;;;;;;;;-144.99;100.00;52560.19;5001534;28;20017;-70
2024/03/13 06:05:28;;;;;;;;;;;;;;;-144.99;100.00;52529.63;5000286;28;20338;-69
2024/03/13 06:07:57;;;;;;;;;;;;;;;-144.99;100.00;52541.84;5000764;28;19938;-69
2024/03/13 06:10:24;;;;;;;;;;;;;;;-144.99;100.00;52533.69;5004083;28;19925;-69
2024/03/13 06:12:51;;;;;;;;;;;;;;;-144.99;100.00;52509.25;5007239;28;19935;-69
2024/03/13 06:15:17;;;;;;;;;;;;;;;-144.99;100.00;52550.00;5008223;28;20035;-69
2024/03/13 06:17:45;;;;;;;;;;;;;;;-144.99;100.00;52562.25;4999253;28;19988;-69
2024/03/13 06:20:13;;;;;;;;;;;;;;;-144.99;100.00;52529.63;5005952;28;19988;-69
2024/03/13 06:22:40;;;;;;;;;;;;;;;-144.99;100.00;52537.78;5006825;28;19925;-69
2024/03/13 06:25:08;;;;;;;;;;;;;;;-144.99;100.00;52537.78;5003027;28;20289;-69
2024/03/13 06:27:34;;;;;;;;;;;;;;;-144.99;100.00;52545.94;5007628;28;19959;-70
2024/03/13 06:30:01;;;;;;;;;;;;;;;-144.99;100.00;52505.16;5007362;28;19930;-69
2024/03/13 06:32:28;;;;;;;;;;;;;;;-144.99;100.00;52492.94;5008370;28;19971;-69
2024/03/13 06:34:55;;;;;;;;;;;;;;;-144.99;100.00;52527.59;5005355;28;19960;-69
2024/03/13 06:37:21;;;;;;;;;;;;;;;-144.99;100.00;52480.72;5007498;28;19929;-69
2024/03/13 06:39:48;;;;;;;;;;;;;;;-144.99;100.00;52550.00;5003405;28;19937;-69
2024/03/13 06:42:15;;;;;;;;;;;;;;;-144.99;100.00;52509.25;5008168;28;20143;-69
2024/03/13 06:44:43;;;;;;;;;;;;;;;-144.99;100.00;52543.91;4999945;28;19926;-69
2024/03/13 06:47:11;;;;;;;;;;;;;;;-144.99;100.00;52521.47;5007811;28;19925;-69
2024/03/13 06:49:37;;;;;;;;;;;;;;;-144.99;100.00;52515.34;5005358;28;21315;-69
2024/03/13 06:52:04;;;;;;;;;;;;;;;-144.99;100.00;52523.50;5006076;28;19925;-69
2024/03/13 06:54:30;;;;;;;;;;;;;;;-144.99;100.00;52501.09;5007198;28;20084;-69
2024/03/13 06:56:57;;;;;;;;;;;;;;;-144.99;100.00;52505.16;5002494;28;19930;-69
2024/03/13 06:59:23;;;;;;;;;;;;;;;-144.99;100.00;52517.41;5007770;28;19961;-69
2024/03/13 07:01:51;;;;;;;;;;;;;;;-144.99;100.00;52521.47;5005499;28;19929;-69
2024/03/13 07:04:18;;;;;;;;;;;;;;;-144.99;100.00;52484.78;5005412;28;20317;-69
2024/03/13 07:06:46;;;;;;;;;;;;;;;-144.99;100.00;52523.50;5002465;28;20003;-69
2024/03/13 07:09:13;;;;;;;;;;;;;;;-144.99;100.00;52482.75;4999773;28;19926;-69
2024/03/13 07:11:40;;;;;;;;;;;;;;;-144.99;100.00;52488.84;5003437;28;20367;-69
2024/03/13 07:14:11;;;;;;;;;;;;;;;-144.99;100.00;52450.13;5000428;28;19951;-69
2024/03/13 07:16:38;;;;;;;;;;;;;;;-144.99;100.00;52541.84;5007389;28;19972;-69
2024/03/13 07:19:07;;;;;;;;;;;;;;;-144.99;100.00;52468.47;5006997;28;19925;-68
2024/03/13 07:21:34;;;;;;;;;;;;;;;-144.99;100.00;52492.94;5007161;28;19932;-69
2024/03/13 07:24:01;;;;;;;;;;;;;;;-144.99;100.00;52503.13;5002199;28;20028;-68
2024/03/13 07:26:27;;;;;;;;;;;;;;;-144.99;100.00;52476.63;5007289;28;19925;-68
2024/03/13 07:28:54;;;;;;;;;;;;;;;-144.99;100.00;52456.25;5007008;28;20396;-68
2024/03/13 07:31:21;;;;;;;;;;;;;;;-144.99;100.00;52499.06;5002992;28;19976;-69
2024/03/13 07:33:50;;;;;;;;;;;;;;;-144.99;100.00;52472.56;5005231;28;19949;-67
2024/03/13 07:36:16;;;;;;;;;;;;;;;-144.99;100.00;52452.16;5003444;28;19956;-69
2024/03/13 07:38:43;;;;;;;;;;;;;;;-144.99;100.00;52464.41;5000622;28;19991;-68
2024/03/13 07:41:12;;;;;;;;;;;;;;;-144.99;100.00;52472.56;5003619;28;19957;-68
2024/03/13 07:43:39;;;;;;;;;;;;;;;-144.99;100.00;52494.97;5000562;28;19957;-68
2024/03/13 07:46:06;;;;;;;;;;;;;;;-144.99;99.70;52525.56;5000988;28;19926;-68
2024/03/13 07:48:32;;;;;;;;;;;;;;;-144.99;99.58;52509.25;5007490;28;20535;-69
2024/03/13 07:50:59;;;;;;;;;;;;;;;-144.99;99.31;52444.03;5007215;28;19929;-69
2024/03/13 07:53:25;;;;;;;;;;;;;;;-144.99;98.86;52492.94;5007772;28;19972;-69
2024/03/13 07:55:52;;;;;;;;;;;;;;;-144.99;98.51;52448.09;5004626;28;19933;-68
2024/03/13 07:58:18;;;;;;;;;;;;;;;-144.99;98.51;52488.84;5004453;28;20020;-69
2024/03/13 08:00:45;;;;;;;;;;;;;;;-144.99;97.75;52452.16;5002780;28;20004;-69
2024/03/13 08:03:11;;;;;;;;;;;;;;;-144.99;98.34;52468.47;5006584;28;19931;-69
2024/03/13 08:05:38;;;;;;;;;;;;;;;-144.99;96.76;52439.94;5005538;28;19925;-69
2024/03/13 08:08:04;;;;;;;;;;;;;;;-144.99;96.13;52492.94;5002257;28;19969;-68
2024/03/13 08:10:31;;;;;;;;;;;;;;;-144.99;95.11;52482.75;4999560;28;19925;-68
2024/03/13 08:12:58;;;;;;;;;;;;;;;-144.99;94.10;52472.56;5008217;28;19967;-69
2024/03/13 08:15:25;;;;;;;;;;;;;;;-144.99;94.88;52468.47;5010645;28;20242;-69
2024/03/13 08:17:51;;;;;;;;;;;;;;;-144.99;93.84;52458.28;5005961;28;20041;-69
2024/03/13 08:20:19;;;;;;;;;;;;;;;-144.99;93.52;52488.84;5007217;28;19977;-68
2024/03/13 08:22:46;;;;;;;;;;;;;;;-144.99;93.66;52441.97;5006986;28;19944;-69
2024/03/13 08:25:16;;;;;;;;;;;;;;;-144.99;93.18;52472.56;5007501;28;19983;-66
2024/03/13 08:27:42;;;;;;;;;;;;;;;-144.99;93.34;52488.84;5004189;28;20299;-69
2024/03/13 08:30:09;;;;;;;;;;;;;;;-144.99;93.54;52480.72;5006685;28;19954;-70
2024/03/13 08:32:37;;;;;;;;;;;;;;;-144.99;93.50;52464.41;5005091;28;20109;-70
2024/03/13 08:35:03;;;;;;;;;;;;;;;-144.99;93.47;52484.78;5001659;28;20307;-69
2024/03/13 08:37:30;;;;;;;;;;;;;;;-144.99;93.34;52472.56;5002846;28;20417;-69
2024/03/13 08:39:58;;;;;;;;;;;;;;;-144.99;93.19;52482.75;5003588;28;19929;-69
2024/03/13 08:42:27;;;;;;;;;;;;;;;-144.99;93.12;52482.75;5010163;28;19941;-69
2024/03/13 08:44:53;;;;;;;;;;;;;;;-144.99;93.76;52448.09;5009417;28;19933;-70
2024/03/13 08:47:20;;;;;;;;;;;;;;;-144.99;92.75;52448.09;5005348;28;19988;-70
2024/03/13 08:49:46;;;;;;;;;;;;;;;-144.99;92.84;52517.41;5005197;28;20020;-69
2024/03/13 08:52:13;;;;;;;;;;;;;;;-144.99;91.72;52478.66;5001730;28;19936;-69
2024/03/13 08:54:41;;;;;;;;;;;;;;;-144.99;91.07;52468.47;5007506;28;19998;-70
2024/03/13 08:57:08;;;;;;;;;;;;;;;-144.99;91.03;52464.41;5007271;28;19947;-70
2024/03/13 08:59:35;;;;;;;;;;;;;;;-144.99;91.07;52476.63;5007792;28;20469;-68
2024/03/13 09:02:02;;;;;;;;;;;;;;;-144.99;90.56;52486.81;5007288;28;20101;-69
2024/03/13 09:04:29;;;;;;;;;;;;;;;-144.99;90.03;52472.56;5009724;28;19937;-70
2024/03/13 09:06:56;;;;;;;;;;;;;;;-144.99;89.86;52472.56;5008176;28;19926;-70
2024/03/13 09:09:24;;;;;;;;;;;;;;;-144.99;90.93;52468.47;5009471;28;20512;-69
2024/03/13 09:11:50;;;;;;;;;;;;;;;-144.99;90.99;52444.03;5006277;28;19940;-69
2024/03/13 09:14:17;;;;;;;;;;;;;;;-144.99;89.88;52488.84;5009781;28;20513;-69
2024/03/13 09:16:43;;;;;;;;;;;;;;;-144.99;89.97;52452.16;5003123;28;20092;-69
2024/03/13 09:19:10;;;;;;;;;;;;;;;-144.99;89.69;52441.97;5004233;28;19981;-69
2024/03/13 09:21:37;;;;;;;;;;;;;;;-144.99;88.37;52480.72;5006176;28;20106;-69
2024/03/13 09:24:03;;;;;;;;;;;;;;;-144.99;88.86;52439.94;5009004;28;20352;-69
2024/03/13 09:26:33;;;;;;;;;;;;;;;-144.99;88.99;52521.47;5008908;28;20019;-70
2024/03/13 09:29:00;;;;;;;;;;;;;;;-144.99;88.95;52472.56;5007888;28;20351;-70
2024/03/13 09:31:27;;;;;;;;;;;;;;;-144.99;88.76;52452.16;5008999;28;19987;-70
2024/03/13 09:33:53;;;;;;;;;;;;;;;-144.99;88.27;52468.47;5009221;28;19972;-70
2024/03/13 09:36:20;;;;;;;;;;;;;;;-144.99;88.33;52480.72;5008815;28;19971;-70
2024/03/13 09:38:46;;;;;;;;;;;;;;;-144.99;87.44;52429.75;5007091;28;20087;-70
2024/03/13 09:41:13;;;;;;;;;;;;;;;-144.99;87.48;52501.09;5003022;28;19934;-70
2024/03/13 09:43:39;;;;;;;;;;;;;;;-144.99;85.58;52484.78;4999450;28;19925;-70
2024/03/13 09:46:06;;;;;;;;;;;;;;;-144.99;86.39;52439.94;5003591;28;20293;-70
2024/03/13 09:48:33;;;;;;;;;;;;;;;-144.99;86.28;52448.09;5000288;28;20299;-69
2024/03/13 09:50:59;;;;;;;;;;;;;;;-144.99;86.10;52501.09;5004742;28;20000;-69
2024/03/13 09:53:28;;;;;;;;;;;;;;;-144.99;85.99;52435.88;5000518;28;20368;-69
2024/03/13 09:55:54;;;;;;;;;;;;;;;-144.99;87.16;52470.50;4995594;28;19933;-70
2024/03/13 09:58:21;;;;;;;;;;;;;;;-144.99;86.16;52472.56;5007722;28;20456;-70
2024/03/13 10:00:47;;;;;;;;;;;;;;;-144.99;84.24;52419.56;5006323;28;20007;-70
2024/03/13 10:03:21;;;;;;;;;;;;;;;-144.99;82.37;52433.81;5007636;28;20015;-70
2024/03/13 10:05:48;;;;;;;;;;;;;;;-144.99;82.71;52435.88;5001411;28;19930;-68
2024/03/13 10:08:14;;;;;;;;;;;;;;;-144.99;81.59;52433.81;5002331;28;20143;-70
2024/03/13 10:10:41;;;;;;;;;;;;;;;-144.99;80.48;52378.78;5002436;28;19940;-70
2024/03/13 10:13:08;;;;;;;;;;;;;;;-144.99;80.31;52415.47;5005056;28;19926;-69
2024/03/13 10:15:36;;;;;;;;;;;;;;;-144.99;82.20;52437.91;5009780;28;19929;-70
2024/03/13 10:18:03;;;;;;;;;;;;;;;-144.99;84.04;52427.72;5009525;28;19948;-70
2024/03/13 10:20:29;;;;;;;;;;;;;;;-144.99;82.89;52427.72;5011073;28;20033;-70
2024/03/13 10:22:57;;;;;;;;;;;;;;;-144.99;83.68;52431.78;5010052;28;19980;-70
2024/03/13 10:25:23;;;;;;;;;;;;;;;-144.99;83.84;52441.97;5009327;28;20316;-69
2024/03/13 10:27:49;;;;;;;;;;;;;;;-144.99;82.67;52427.72;4998730;28;19929;-70
2024/03/13 10:30:16;;;;;;;;;;;;;;;-144.99;80.72;52403.25;5006490;28;19929;-69
2024/03/13 10:32:43;;;;;;;;;;;;;;;-144.99;79.51;52431.78;5002829;28;20015;-70
2024/03/13 10:35:09;;;;;;;;;;;;;;;-144.99;78.06;52386.94;5007550;28;19926;-70
2024/03/13 10:37:36;;;;;;;;;;;;;;;-144.99;78.79;52464.41;4997899;28;20020;-69
2024/03/13 10:40:04;;;;;;;;;;;;;;;-144.99;80.70;52484.78;5001012;28;19933;-69
2024/03/13 10:42:31;;;;;;;;;;;;;;;-144.99;83.24;52468.47;4999262;28;19929;-70
2024/03/13 10:44:58;;;;;;;;;;;;;;;-144.99;84.62;52480.72;5003464;28;19947;-69
2024/03/13 10:47:26;;;;;;;;;;;;;;;-144.99;87.00;52507.19;5007585;28;19925;-70
2024/03/13 10:49:52;;;;;;;;;;;;;;;-144.99;88.73;52507.19;5003208;28;20399;-70
2024/03/13 10:52:19;;;;;;;;;;;;;;;-144.99;89.48;52488.84;5007024;28;19937;-70
2024/03/13 10:54:46;;;;;;;;;;;;;;;-144.99;89.95;52505.16;5001096;28;19926;-70
2024/03/13 10:57:16;;;;;;;;;;;;;;;-144.99;90.01;52456.25;5001344;28;19972;-69
2024/03/13 10:59:44;;;;;;;;;;;;;;;-144.99;90.91;52488.84;5004148;28;19929;-70
2024/03/13 11:02:10;;;;;;;;;;;;;;;-144.99;89.76;52486.81;5002143;28;20380;-69
2024/03/13 11:04:38;;;;;;;;;;;;;;;-144.99;89.80;52472.56;5005909;28;19933;-69
2024/03/13 11:07:06;;;;;;;;;;;;;;;-144.99;90.18;52450.13;5005121;28;20311;-70
2024/03/13 11:09:32;;;;;;;;;;;;;;;-144.99;89.95;52480.72;5006623;28;20108;-69
2024/03/13 11:11:59;;;;;;;;;;;;;;;-144.99;90.68;52494.97;5006808;28;19926;-69
2024/03/13 11:14:26;;;;;;;;;;;;;;;-144.99;90.89;52464.41;5004088;28;19925;-70
2024/03/13 11:16:53;;;;;;;;;;;;;;;-144.99;92.12;52499.06;4999948;28;19930;-69
2024/03/13 11:19:20;;;;;;;;;;;;;;;-144.99;92.44;52497.00;4999493;28;19937;-69
2024/03/13 11:21:46;;;;;;;;;;;;;;;-144.99;92.56;52480.72;5006438;28;19941;-69
2024/03/13 11:24:14;;;;;;;;;;;;;;;-144.99;91.99;52452.16;5002207;28;19964;-69
2024/03/13 11:26:41;;;;;;;;;;;;;;;-144.99;92.77;52464.41;5003386;28;20007;-70
2024/03/13 11:29:07;;;;;;;;;;;;;;;-144.99;92.79;52488.84;5001644;28;20012;-70
2024/03/13 11:31:34;;;;;;;;;;;;;;;-144.99;92.89;52494.97;5003206;28;20419;-69
2024/03/13 11:34:00;;;;;;;;;;;;;;;-144.99;93.52;52448.09;5006737;28;19925;-69
2024/03/13 11:36:27;;;;;;;;;;;;;;;-144.99;93.61;52470.50;5006207;28;19960;-70
2024/03/13 11:38:53;;;;;;;;;;;;;;;-144.99;93.41;52478.66;5001734;28;20991;-70
2024/03/13 11:41:20;;;;;;;;;;;;;;;-144.99;93.10;52480.72;5006333;28;19960;-69
2024/03/13 11:43:47;;;;;;;;;;;;;;;-144.99;92.29;52444.03;5006861;28;19991;-69
2024/03/13 11:46:17;;;;;;;;;;;;;;;-144.99;92.73;52423.63;5005969;28;20322;-69
2024/03/13 11:48:44;;;;;;;;;;;;;;;-144.99;93.29;52468.47;5004735;28;19936;-69
2024/03/13 11:51:11;;;;;;;;;;;;;;;-144.99;93.68;52476.63;5002374;28;19925;-69
2024/03/13 11:53:40;;;;;;;;;;;;;;;-144.99;93.29;52484.78;5010550;28;19934;-69
2024/03/13 11:56:09;;;;;;;;;;;;;;;-144.99;92.57;52488.84;5003936;28;19932;-69
2024/03/13 11:58:36;;;;;;;;;;;;;;;-144.99;92.53;52448.09;5008421;28;19937;-69
2024/03/13 12:01:02;;;;;;;;;;;;;;;-144.99;91.31;52450.13;5004886;28;19956;-69
2024/03/13 12:03:30;;;;;;;;;;;;;;;-144.99;90.67;52456.25;5010141;28;20329;-69
2024/03/13 12:05:59;;;;;;;;;;;;;;;-144.99;91.09;52452.16;5006172;28;19944;-69
2024/03/13 12:08:26;;;;;;;;;;;;;;;-144.99;91.02;52456.25;5007412;28;20017;-70
2024/03/13 12:10:53;;;;;;;;;;;;;;;-144.99;90.57;52460.31;5008118;28;20315;-69
2024/03/13 12:13:20;;;;;;;;;;;;;;;-144.99;91.51;52454.22;5010110;28;19926;-69
2024/03/13 12:15:47;;;;;;;;;;;;;;;-144.99;91.38;52441.97;5001787;28;20020;-69
2024/03/13 12:18:13;;;;;;;;;;;;;;;-144.99;91.49;52497.00;5003450;28;20433;-69
2024/03/13 12:20:40;;;;;;;;;;;;;;;-144.99;91.99;52427.72;5007718;28;19961;-69
2024/03/13 12:23:07;;;;;;;;;;;;;;;-144.99;91.98;52488.84;5005696;28;19988;-70
2024/03/13 12:25:34;;;;;;;;;;;;;;;-144.99;91.14;52423.63;5004455;28;20025;-69
2024/03/13 12:28:00;;;;;;;;;;;;;;;-144.99;91.23;52476.63;5004062;28;19938;-69
2024/03/13 12:30:29;;;;;;;;;;;;;;;-144.99;92.05;52444.03;5010127;28;20374;-69
2024/03/13 12:32:58;;;;;;;;;;;;;;;-144.99;91.33;52450.13;5005932;28;19926;-69
2024/03/13 12:35:25;;;;;;;;;;;;;;;-144.99;90.95;52452.16;5010848;28;20036;-70
2024/03/13 12:37:55;;;;;;;;;;;;;;;-144.99;91.32;52472.56;5002727;28;19930;-70